Time;durP1;ratioP1;P1;durP2;ratioP2;P2;SDS_P1;SDS_P2;PMS_P1;PMS_P2;Temp;Humidity;BMP_temperature;BMP_pressure;BME280_temperature;BME280_humidity;BME280_pressure;Samples;Min_cycle;Max_cycle;Signal;HPM_P1;HPM_P2
2020/12/18 00:02:04;;;;;;;31.38;15.00;;;6.50;99.90;;;;;;4716787;30;20146;-87
2020/12/18 00:04:49;;;;;;;24.35;15.50;;;6.60;99.90;;;;;;4722568;30;20056;-86
2020/12/18 00:07:35;;;;;;;32.13;15.20;;;6.60;99.90;;;;;;4720695;30;20056;-88
2020/12/18 00:10:01;;;;;;;24.00;14.63;;;6.50;99.90;;;;;;4699620;30;20051;-88
2020/12/18 00:12:28;;;;;;;33.92;14.13;;;6.50;99.90;;;;;;4732500;30;20090;-87
2020/12/18 00:14:54;;;;;;;27.33;14.50;;;6.50;99.90;;;;;;4732050;30;20056;-86
2020/12/18 00:17:20;;;;;;;32.28;14.45;;;6.60;99.90;;;;;;4716746;30;20044;-88
2020/12/18 00:19:46;;;;;;;29.60;14.93;;;6.50;99.90;;;;;;4732641;30;20059;-86
2020/12/18 00:22:12;;;;;;;34.38;15.32;;;6.50;99.90;;;;;;4732266;30;20151;-87
2020/12/18 00:24:38;;;;;;;34.53;13.60;;;6.50;99.90;;;;;;4735502;30;20532;-86
2020/12/18 00:27:03;;;;;;;44.88;15.90;;;6.50;99.90;;;;;;4720178;30;20048;-87
2020/12/18 00:29:29;;;;;;;30.92;14.52;;;6.50;99.90;;;;;;4721165;30;20056;-87
2020/12/18 00:31:55;;;;;;;34.03;15.70;;;6.50;99.90;;;;;;4750942;30;20515;-86
2020/12/18 00:34:21;;;;;;;36.28;15.45;;;6.50;99.90;;;;;;4719672;30;20906;-86
2020/12/18 00:36:51;;;;;;;34.03;15.25;;;6.50;99.90;;;;;;4723938;30;20075;-86
2020/12/18 00:39:37;;;;;;;26.85;14.30;;;6.50;99.90;;;;;;4725864;30;20422;-87
2020/12/18 00:42:03;;;;;;;29.05;14.27;;;6.50;99.90;;;;;;4719864;30;20052;-87
2020/12/18 00:44:49;;;;;;;32.40;15.05;;;6.50;99.90;;;;;;4736699;30;20144;-87
2020/12/18 00:47:15;;;;;;;37.20;14.13;;;6.50;99.90;;;;;;4768303;30;20075;-86
2020/12/18 00:50:00;;;;;;;29.58;14.95;;;6.50;99.90;;;;;;4721471;30;20497;-87
2020/12/18 00:52:26;;;;;;;31.92;14.50;;;6.50;99.90;;;;;;4734603;30;20156;-86
2020/12/18 00:54:52;;;;;;;29.00;13.38;;;6.40;99.90;;;;;;4706345;30;20550;-87
2020/12/18 00:57:38;;;;;;;24.30;14.02;;;6.50;99.90;;;;;;4725707;30;20061;-87
2020/12/18 01:00:07;;;;;;;32.60;15.55;;;6.50;99.90;;;;;;4720144;30;20044;-88
2020/12/18 01:02:33;;;;;;;29.73;13.13;;;6.50;99.90;;;;;;4733218;30;20059;-86
2020/12/18 01:04:59;;;;;;;34.45;13.90;;;6.40;99.90;;;;;;4734508;30;20417;-86
2020/12/18 01:07:25;;;;;;;40.28;13.35;;;6.50;99.90;;;;;;4719424;30;20052;-87
2020/12/18 01:10:11;;;;;;;26.92;12.57;;;6.50;99.90;;;;;;4724400;30;20078;-87
2020/12/18 01:12:37;;;;;;;35.25;12.75;;;6.50;99.90;;;;;;4720097;30;20728;-86
2020/12/18 01:15:03;;;;;;;22.65;12.75;;;6.50;99.90;;;;;;4734523;30;20044;-88
2020/12/18 01:17:29;;;;;;;26.23;12.88;;;6.50;99.90;;;;;;4719683;30;20401;-86
2020/12/18 01:20:15;;;;;;;31.52;13.05;;;6.50;99.90;;;;;;4724532;30;20145;-87
2020/12/18 01:22:41;;;;;;;31.40;12.27;;;6.50;99.90;;;;;;4750372;30;20416;-87
2020/12/18 01:25:08;;;;;;;31.73;12.40;;;6.50;99.90;;;;;;4733596;30;20477;-87
2020/12/18 01:27:54;;;;;;;26.73;11.45;;;6.50;99.90;;;;;;4724129;30;20121;-86
2020/12/18 01:30:19;;;;;;;26.23;12.05;;;6.50;99.90;;;;;;4733663;30;20052;-87
2020/12/18 01:32:45;;;;;;;31.40;13.02;;;6.50;99.90;;;;;;4720196;30;20066;-87
2020/12/18 01:35:11;;;;;;;25.08;11.73;;;6.50;99.90;;;;;;4749114;30;20079;-87
2020/12/18 01:37:57;;;;;;;26.23;11.88;;;6.40;99.90;;;;;;4713332;30;20523;-87
2020/12/18 01:40:23;;;;;;;33.50;12.65;;;6.40;99.90;;;;;;4718508;30;20497;-86
2020/12/18 01:42:49;;;;;;;25.65;11.55;;;6.40;99.90;;;;;;4733977;30;20059;-87
2020/12/18 01:45:15;;;;;;;21.70;11.88;;;6.30;99.90;;;;;;4704219;30;20143;-87
2020/12/18 01:48:01;;;;;;;28.60;11.63;;;6.30;99.90;;;;;;4724678;30;20129;-87
2020/12/18 01:50:27;;;;;;;23.55;11.18;;;6.30;99.90;;;;;;4718765;30;20044;-86
2020/12/18 01:52:54;;;;;;;32.90;12.10;;;6.20;99.90;;;;;;4733417;30;20509;-87
2020/12/18 01:55:21;;;;;;;23.60;11.75;;;6.20;99.90;;;;;;4733341;30;20048;-88
2020/12/18 01:58:08;;;;;;;30.77;12.38;;;6.20;99.90;;;;;;4712202;30;20116;-87
2020/12/18 02:00:34;;;;;;;35.17;12.65;;;6.10;99.90;;;;;;4719052;30;20434;-86
2020/12/18 02:03:20;;;;;;;26.80;11.45;;;6.10;99.90;;;;;;4704985;30;20052;-86
2020/12/18 02:05:45;;;;;;;26.08;12.18;;;5.90;99.90;;;;;;4733883;30;20113;-87
2020/12/18 02:08:33;;;;;;;25.40;11.63;;;5.90;99.90;;;;;;4718283;30;20071;-86
2020/12/18 02:11:00;;;;;;;27.25;12.00;;;5.80;99.90;;;;;;4733339;30;20109;-86
2020/12/18 02:13:26;;;;;;;29.38;11.02;;;5.70;99.90;;;;;;4748803;30;20157;-86
2020/12/18 02:15:53;;;;;;;26.20;11.57;;;5.70;99.90;;;;;;4733381;30;20074;-86
2020/12/18 02:18:23;;;;;;;28.58;12.48;;;5.70;99.90;;;;;;4722664;30;20047;-87
2020/12/18 02:20:51;;;;;;;;;;;5.60;99.90;;;;;;4733969;30;20460;-87
2020/12/18 02:23:16;;;;;;;23.08;12.07;;;5.50;99.90;;;;;;4732519;30;19930;-87
2020/12/18 02:25:43;;;;;;;28.98;12.38;;;5.60;99.90;;;;;;4733249;30;20532;-87
2020/12/18 02:28:29;;;;;;;27.50;13.05;;;5.50;99.90;;;;;;4735493;30;20059;-87
2020/12/18 02:31:16;;;;;;;24.90;13.15;;;5.50;99.90;;;;;;4711672;30;20502;-88
2020/12/18 02:33:42;;;;;;;28.95;12.38;;;5.50;99.90;;;;;;4733362;30;20545;-86
2020/12/18 02:36:08;;;;;;;27.83;12.60;;;5.40;99.90;;;;;;4749131;30;20414;-88
2020/12/18 02:39:00;;;;;;;28.70;12.88;;;5.50;99.90;;;;;;4735932;30;20052;-87
2020/12/18 02:41:26;;;;;;;29.05;13.23;;;5.50;99.90;;;;;;4732265;30;20066;-89
2020/12/18 02:43:52;;;;;;;22.00;12.30;;;5.40;99.90;;;;;;4704354;30;20056;-89
2020/12/18 02:46:18;;;;;;;26.23;12.73;;;5.40;99.90;;;;;;4732809;30;20054;-89
2020/12/18 02:48:45;;;;;;;23.23;12.65;;;5.40;99.90;;;;;;4718911;30;20056;-85
2020/12/18 02:51:13;;;;;;;28.38;12.32;;;5.30;99.90;;;;;;4718561;30;20052;-86
2020/12/18 02:53:39;;;;;;;28.42;13.27;;;5.30;99.90;;;;;;4732910;30;20048;-86
2020/12/18 02:56:26;;;;;;;26.88;13.80;;;5.30;99.90;;;;;;4734809;30;20484;-85
2020/12/18 02:58:52;;;;;;;29.52;14.70;;;5.30;99.90;;;;;;4732887;30;20059;-84
2020/12/18 03:01:38;;;;;;;23.63;14.07;;;5.30;99.90;;;;;;4735231;30;20146;-85
2020/12/18 03:04:04;;;;;;;34.42;14.80;;;5.20;99.90;;;;;;4733053;30;20132;-84
2020/12/18 03:06:30;;;;;;;30.45;14.55;;;5.20;99.90;;;;;;4732206;30;20131;-84
2020/12/18 03:08:56;;;;;;;33.80;15.07;;;5.20;99.90;;;;;;4717590;30;20055;-83
2020/12/18 03:11:42;;;;;;;35.13;15.45;;;5.20;99.90;;;;;;4702192;30;20516;-84
2020/12/18 03:14:08;;;;;;;32.03;15.65;;;5.10;99.90;;;;;;4718320;30;20063;-83
2020/12/18 03:16:54;;;;;;;32.05;16.45;;;5.20;99.90;;;;;;4723489;30;20066;-83
2020/12/18 03:19:19;;;;;;;32.28;15.02;;;5.10;99.90;;;;;;4717057;30;20048;-86
2020/12/18 03:21:46;;;;;;;33.55;16.35;;;5.10;99.90;;;;;;4717697;30;20452;-85
2020/12/18 03:24:12;;;;;;;32.47;16.13;;;5.10;99.90;;;;;;4717265;30;20055;-85
2020/12/18 03:26:37;;;;;;;30.70;17.15;;;5.10;99.90;;;;;;4714964;30;20131;-86
2020/12/18 03:29:03;;;;;;;32.63;15.60;;;5.10;99.90;;;;;;4703513;30;20044;-85
2020/12/18 03:31:49;;;;;;;38.97;17.02;;;5.10;99.90;;;;;;4723050;30;20417;-86
2020/12/18 03:34:35;;;;;;;38.20;17.00;;;5.00;99.90;;;;;;4719009;30;20113;-86
2020/12/18 03:37:00;;;;;;;37.88;17.23;;;5.00;99.90;;;;;;4730526;30;20049;-85
2020/12/18 03:39:26;;;;;;;32.05;17.05;;;5.00;99.90;;;;;;4731281;30;20473;-84
2020/12/18 03:41:52;;;;;;;40.15;18.63;;;4.90;99.90;;;;;;4732081;30;20056;-85
2020/12/18 03:44:18;;;;;;;39.53;17.23;;;5.00;99.90;;;;;;4732123;30;20512;-85
2020/12/18 03:46:44;;;;;;;37.75;16.33;;;5.00;99.90;;;;;;4747543;30;20424;-84
2020/12/18 03:49:09;;;;;;;27.80;16.25;;;4.90;99.90;;;;;;4717819;30;20110;-83
2020/12/18 03:51:35;;;;;;;47.35;17.27;;;4.90;99.90;;;;;;4733423;30;20059;-84
2020/12/18 03:54:01;;;;;;;36.42;18.15;;;4.90;99.90;;;;;;4733160;30;20044;-85
2020/12/18 03:56:27;;;;;;;35.70;18.08;;;4.80;99.90;;;;;;4719839;30;20048;-83
2020/12/18 03:58:53;;;;;;;38.05;18.17;;;4.80;99.90;;;;;;4720197;30;20048;-83
2020/12/18 04:01:18;;;;;;;46.28;17.60;;;4.80;99.90;;;;;;4720639;30;20052;-83
2020/12/18 04:03:44;;;;;;;42.03;18.17;;;4.80;99.90;;;;;;4734465;30;20453;-84
2020/12/18 04:06:30;;;;;;;43.13;19.02;;;4.80;99.90;;;;;;4719573;30;20398;-83
2020/12/18 04:09:16;;;;;;;36.20;17.63;;;4.80;99.90;;;;;;4714831;30;20837;-83
2020/12/18 04:11:42;;;;;;;36.25;18.17;;;4.80;99.90;;;;;;4735016;30;20777;-85
2020/12/18 04:14:11;;;;;;;37.13;17.90;;;4.90;99.90;;;;;;4735469;30;20075;-85
2020/12/18 04:16:37;;;;;;;38.70;17.20;;;4.80;99.90;;;;;;4720100;30;20477;-86
2020/12/18 04:19:03;;;;;;;47.70;17.85;;;4.80;99.90;;;;;;4720169;30;20044;-86
2020/12/18 04:21:29;;;;;;;40.13;19.15;;;4.80;99.90;;;;;;4720280;30;20391;-86
2020/12/18 04:24:15;;;;;;;35.67;16.55;;;4.80;99.90;;;;;;4713822;30;20060;-85
2020/12/18 04:26:41;;;;;;;31.77;17.10;;;4.70;99.90;;;;;;4719933;30;20052;-86
2020/12/18 04:29:06;;;;;;;40.70;18.70;;;4.70;99.90;;;;;;4735447;30;20117;-85
2020/12/18 04:31:52;;;;;;;47.97;20.33;;;4.70;99.90;;;;;;4726386;30;20067;-85
2020/12/18 04:34:18;;;;;;;38.05;18.10;;;4.70;99.90;;;;;;4720551;30;20052;-85
2020/12/18 04:37:04;;;;;;;36.40;19.48;;;4.70;99.90;;;;;;4726280;30;20067;-85
2020/12/18 04:39:30;;;;;;;43.15;19.38;;;4.70;99.90;;;;;;4749958;30;20056;-84
2020/12/18 04:42:18;;;;;;;34.50;18.30;;;4.70;99.90;;;;;;4713886;30;20060;-85
2020/12/18 04:44:45;;;;;;;49.60;21.42;;;4.70;99.90;;;;;;4733931;30;20726;-86
2020/12/18 04:47:40;;;;;;;45.88;21.00;;;4.70;99.90;;;;;;4737020;30;20513;-85
2020/12/18 04:50:25;;;;;;;46.33;21.55;;;4.60;99.90;;;;;;4737904;30;20121;-87
2020/12/18 04:52:56;;;;;;;42.13;21.13;;;4.60;99.90;;;;;;4705318;30;20504;-86
2020/12/18 04:55:25;;;;;;;;;;;4.50;99.90;;;;;;4735297;30;20044;-87
2020/12/18 04:57:51;;;;;;;46.03;20.10;;;4.60;99.90;;;;;;4734653;30;19963;-86
2020/12/18 05:00:18;;;;;;;42.53;20.08;;;4.70;99.90;;;;;;4735013;30;20044;-87
2020/12/18 05:02:45;;;;;;;45.50;22.50;;;4.70;99.90;;;;;;4733657;30;20995;-86
2020/12/18 05:05:31;;;;;;;61.42;27.60;;;4.70;99.90;;;;;;4712793;30;20060;-88
2020/12/18 05:07:56;;;;;;;45.33;20.90;;;4.70;99.90;;;;;;4734571;30;20508;-87
2020/12/18 05:10:22;;;;;;;59.08;25.45;;;4.70;99.90;;;;;;4735088;30;20114;-87
2020/12/18 05:12:48;;;;;;;48.05;21.08;;;4.70;99.90;;;;;;4719478;30;20044;-86
2020/12/18 05:15:34;;;;;;;52.50;21.65;;;4.80;99.90;;;;;;4712568;30;20056;-87
2020/12/18 05:18:00;;;;;;;45.70;22.08;;;4.80;99.90;;;;;;4710181;30;20387;-86
2020/12/18 05:20:46;;;;;;;53.92;24.17;;;4.90;99.90;;;;;;4722220;30;20087;-86
2020/12/18 05:23:11;;;;;;;55.75;26.27;;;4.80;99.90;;;;;;4750611;30;20075;-86
2020/12/18 05:25:58;;;;;;;48.88;21.95;;;4.90;99.90;;;;;;4724825;30;20052;-86
2020/12/18 05:28:24;;;;;;;48.90;27.25;;;4.90;99.90;;;;;;4719907;30;20386;-86
2020/12/18 05:31:15;;;;;;;63.92;24.48;;;5.00;99.90;;;;;;4725657;30;20058;-86
2020/12/18 05:33:42;;;;;;;54.10;24.55;;;5.00;99.90;;;;;;4749442;30;20098;-86
2020/12/18 05:36:28;;;;;;;53.38;23.98;;;5.00;99.90;;;;;;4724716;30;20467;-85
2020/12/18 05:39:14;;;;;;;45.15;22.30;;;5.00;99.90;;;;;;4712108;30;20062;-84
2020/12/18 05:41:43;;;;;;;58.67;25.33;;;5.00;99.90;;;;;;4718650;30;20055;-85
2020/12/18 05:44:09;;;;;;;49.63;24.50;;;5.00;99.90;;;;;;4749829;30;20131;-85
2020/12/18 05:46:38;;;;;;;55.10;26.30;;;5.10;99.90;;;;;;4733025;30;20052;-88
2020/12/18 05:49:06;;;;;;;45.85;22.70;;;5.10;99.90;;;;;;4733597;30;20063;-86
2020/12/18 05:51:36;;;;;;;50.15;25.15;;;5.10;99.90;;;;;;4749320;30;20063;-87
2020/12/18 05:54:22;;;;;;;49.85;24.88;;;5.20;99.90;;;;;;4724628;30;20296;-85
2020/12/18 05:56:53;;;;;;;49.45;24.85;;;5.20;99.90;;;;;;4748958;30;20063;-85
2020/12/18 05:59:47;;;;;;;47.47;24.73;;;5.30;99.90;;;;;;4723792;30;20052;-86
2020/12/18 06:02:15;;;;;;;57.88;26.05;;;5.40;99.90;;;;;;4719347;30;20051;-86
2020/12/18 06:04:42;;;;;;;61.95;26.48;;;5.40;99.90;;;;;;4733261;30;20444;-85
2020/12/18 06:07:09;;;;;;;48.50;24.13;;;5.40;99.90;;;;;;4719114;30;20052;-85
2020/12/18 06:09:56;;;;;;;45.50;22.65;;;5.50;99.90;;;;;;4723552;30;20644;-85
2020/12/18 06:12:22;;;;;;;47.75;22.90;;;5.60;99.90;;;;;;4749125;30;20445;-85
2020/12/18 06:14:48;;;;;;;47.10;21.30;;;5.60;99.90;;;;;;4718013;30;20087;-87
2020/12/18 06:17:35;;;;;;;56.95;23.08;;;5.60;99.90;;;;;;4712036;30;20060;-86
2020/12/18 06:20:21;;;;;;;47.97;21.00;;;5.70;99.90;;;;;;4724286;30;20063;-86
2020/12/18 06:22:58;;;;;;;48.78;20.70;;;5.70;99.90;;;;;;4718089;30;20501;-85
2020/12/18 06:25:46;;;;;;;41.63;19.63;;;5.80;99.90;;;;;;4723690;30;20428;-86
2020/12/18 06:28:19;;;;;;;38.08;19.58;;;5.70;99.90;;;;;;4715031;30;20059;-86
2020/12/18 06:31:12;;;;;;;48.75;21.50;;;5.80;99.90;;;;;;4718950;30;20427;-85
2020/12/18 06:34:01;;;;;;;41.45;20.17;;;5.80;99.90;;;;;;4728053;30;20756;-86
2020/12/18 06:36:46;;;;;;;36.40;15.98;;;5.80;99.90;;;;;;4723177;30;20072;-86
2020/12/18 06:39:36;;;;;;;36.42;18.58;;;5.80;99.90;;;;;;4723699;30;20064;-87
2020/12/18 06:42:16;;;;;;;37.72;18.63;;;5.80;99.90;;;;;;4732746;30;20059;-85
2020/12/18 06:44:47;;;;;;;37.35;17.77;;;5.80;99.90;;;;;;4732568;30;20490;-86
2020/12/18 06:47:27;;;;;;;34.92;16.05;;;5.80;99.90;;;;;;4732734;30;20087;-86
2020/12/18 06:50:16;;;;;;;30.25;16.10;;;5.80;99.90;;;;;;4723225;30;20052;-86
2020/12/18 06:53:06;;;;;;;32.85;15.70;;;5.90;99.90;;;;;;4734759;30;20060;-86
2020/12/18 06:55:33;;;;;;;34.33;15.63;;;5.90;99.90;;;;;;4748889;30;20060;-86
2020/12/18 06:58:23;;;;;;;33.38;15.27;;;5.90;99.90;;;;;;4711005;30;20063;-86
2020/12/18 07:00:52;;;;;;;32.53;15.13;;;5.90;99.90;;;;;;4717690;30;20505;-85
2020/12/18 07:03:39;;;;;;;31.67;16.50;;;5.90;99.90;;;;;;4732537;30;20109;-85
2020/12/18 07:06:24;;;;;;;35.95;14.90;;;5.90;99.90;;;;;;4732202;30;20533;-86
2020/12/18 07:09:10;;;;;;;29.27;13.70;;;5.90;99.90;;;;;;4723163;30;20481;-86
2020/12/18 07:11:37;;;;;;;32.45;13.02;;;5.80;99.90;;;;;;4732807;30;20163;-88
2020/12/18 07:14:04;;;;;;;34.13;13.82;;;5.90;99.90;;;;;;4747924;30;20048;-86
2020/12/18 07:16:30;;;;;;;31.58;14.02;;;5.90;99.90;;;;;;4732813;30;20040;-87
2020/12/18 07:18:58;;;;;;;31.88;13.43;;;5.80;99.90;;;;;;4736474;30;20125;-85
2020/12/18 07:21:23;;;;;;;35.53;13.90;;;5.90;99.90;;;;;;4734728;30;20604;-86
2020/12/18 07:23:52;;;;;;;29.88;13.35;;;5.90;99.90;;;;;;4718960;30;20140;-86
2020/12/18 07:26:37;;;;;;;31.73;15.02;;;5.90;99.90;;;;;;4731347;30;20052;-86
2020/12/18 07:29:04;;;;;;;32.13;14.80;;;5.90;99.90;;;;;;4707987;30;20048;-86
2020/12/18 07:31:31;;;;;;;27.73;13.95;;;5.90;99.90;;;;;;4739753;30;20067;-88
2020/12/18 07:34:18;;;;;;;26.27;12.85;;;5.90;99.90;;;;;;4722096;30;20101;-87
2020/12/18 07:37:13;;;;;;;25.15;12.48;;;5.90;99.90;;;;;;4736479;30;20055;-87
2020/12/18 07:39:39;;;;;;;23.55;12.07;;;5.80;99.90;;;;;;4751678;30;20547;-86
2020/12/18 07:42:06;;;;;;;29.08;12.55;;;5.80;99.90;;;;;;4735152;30;20047;-86
2020/12/18 07:44:32;;;;;;;29.95;12.32;;;5.80;99.90;;;;;;4735936;30;20052;-86
2020/12/18 07:46:59;;;;;;;27.98;12.23;;;5.80;99.90;;;;;;4716451;30;20046;-86
2020/12/18 07:49:25;;;;;;;19.65;11.50;;;5.80;99.90;;;;;;4736328;30;20110;-86
2020/12/18 07:51:50;;;;;;;26.90;11.25;;;5.80;99.90;;;;;;4735174;30;20052;-88
2020/12/18 07:54:17;;;;;;;21.98;10.90;;;5.80;99.90;;;;;;4721857;30;20051;-88
2020/12/18 07:56:43;;;;;;;26.42;12.18;;;5.70;99.90;;;;;;4736073;30;20056;-86
2020/12/18 07:59:10;;;;;;;36.42;13.13;;;5.80;99.90;;;;;;4720854;30;20513;-86
2020/12/18 08:01:56;;;;;;;25.60;10.60;;;5.80;99.90;;;;;;4717866;30;20067;-87
2020/12/18 08:04:23;;;;;;;29.20;12.75;;;5.80;99.90;;;;;;4720230;30;20101;-86
2020/12/18 08:06:49;;;;;;;25.13;11.60;;;5.80;99.90;;;;;;4741425;30;20045;-87
2020/12/18 08:09:16;;;;;;;28.33;12.15;;;5.80;99.90;;;;;;4724791;30;20098;-87
2020/12/18 08:11:50;;;;;;;24.13;11.73;;;5.70;99.90;;;;;;4750599;30;20142;-86
2020/12/18 08:14:17;;;;;;;21.38;10.88;;;5.70;99.90;;;;;;4721457;30;20063;-88
2020/12/18 08:17:02;;;;;;;31.38;10.90;;;5.70;99.90;;;;;;4724903;30;20487;-87
2020/12/18 08:19:28;;;;;;;30.85;11.27;;;5.70;99.90;;;;;;4732417;30;20052;-88
2020/12/18 08:21:55;;;;;;;26.00;11.20;;;5.70;99.90;;;;;;4706817;30;20048;-86
2020/12/18 08:24:40;;;;;;;29.63;9.98;;;5.70;99.90;;;;;;4723558;30;20158;-85
2020/12/18 08:27:20;;;;;;;23.00;11.70;;;5.70;99.90;;;;;;4738591;30;20049;-86
2020/12/18 08:29:47;;;;;;;20.80;10.05;;;5.70;99.90;;;;;;4719661;30;20044;-85
2020/12/18 08:32:35;;;;;;;15.75;9.30;;;5.70;99.90;;;;;;4724400;30;20063;-85
2020/12/18 08:35:04;;;;;;;26.95;10.50;;;5.70;99.90;;;;;;4744600;30;20080;-83
2020/12/18 08:37:30;;;;;;;28.52;9.90;;;5.60;99.90;;;;;;4750894;30;20052;-85
2020/12/18 08:39:55;;;;;;;21.63;8.95;;;5.60;99.90;;;;;;4716552;30;20044;-83
2020/12/18 08:42:41;;;;;;;24.50;10.27;;;5.60;99.90;;;;;;4729170;30;20468;-85
2020/12/18 08:45:07;;;;;;;26.27;9.60;;;5.50;99.90;;;;;;4718365;30;20050;-84
2020/12/18 08:47:33;;;;;;;24.58;9.35;;;5.60;99.90;;;;;;4702999;30;20096;-85
2020/12/18 08:49:59;;;;;;;17.80;8.93;;;5.60;99.90;;;;;;4718669;30;20438;-84
2020/12/18 08:52:29;;;;;;;30.33;8.75;;;5.70;99.90;;;;;;4744150;30;20452;-84
2020/12/18 08:55:04;;;;;;;25.35;9.35;;;5.70;99.90;;;;;;4731549;30;20067;-84
2020/12/18 08:57:31;;;;;;;21.52;9.10;;;5.80;99.90;;;;;;4734423;30;20237;-84
2020/12/18 09:00:17;;;;;;;17.80;7.82;;;5.70;99.90;;;;;;4706984;30;20563;-84
2020/12/18 09:02:49;;;;;;;31.30;9.90;;;5.80;99.90;;;;;;4720587;30;20048;-84
2020/12/18 09:05:21;;;;;;;21.27;8.40;;;5.90;99.90;;;;;;4733317;30;20068;-84
2020/12/18 09:07:49;;;;;;;20.27;8.32;;;5.90;99.90;;;;;;4733358;30;20448;-84
2020/12/18 09:11:00;;;;;;;17.92;8.32;;;5.90;99.90;;;;;;4722618;30;20094;-84
2020/12/18 09:13:29;;;;;;;17.67;8.38;;;6.00;99.90;;;;;;4716343;30;20084;-83
2020/12/18 09:16:00;;;;;;;21.63;7.63;;;6.20;99.90;;;;;;4719663;30;20761;-86
2020/12/18 09:18:27;;;;;;;23.40;8.80;;;6.10;99.90;;;;;;4731472;30;20057;-84
2020/12/18 09:21:15;;;;;;;23.30;7.78;;;6.30;99.90;;;;;;4730096;30;20049;-84
2020/12/18 09:23:42;;;;;;;18.20;6.95;;;6.30;99.90;;;;;;4716320;30;20502;-84
2020/12/18 09:26:29;;;;;;;26.83;8.35;;;6.30;99.90;;;;;;4732886;30;20084;-84
2020/12/18 09:28:56;;;;;;;14.98;6.55;;;6.40;99.90;;;;;;4703537;30;20048;-87
2020/12/18 09:31:24;;;;;;;18.92;6.70;;;6.40;99.90;;;;;;4732154;30;20041;-84
2020/12/18 09:33:51;;;;;;;17.17;5.93;;;6.50;99.90;;;;;;4748707;30;20060;-84
2020/12/18 09:36:19;;;;;;;25.65;6.20;;;6.50;99.90;;;;;;4718318;30;20600;-84
2020/12/18 09:38:47;;;;;;;15.50;5.82;;;6.60;99.90;;;;;;4733334;30;20056;-85
2020/12/18 09:41:33;;;;;;;21.67;6.22;;;6.60;99.90;;;;;;4735486;30;20142;-84
2020/12/18 09:44:18;;;;;;;21.65;5.60;;;6.70;99.90;;;;;;4711102;30;20485;-85
2020/12/18 09:46:44;;;;;;;19.63;6.97;;;6.70;99.90;;;;;;4749599;30;20141;-85
2020/12/18 09:49:11;;;;;;;11.65;5.10;;;6.70;99.90;;;;;;4717831;30;20041;-84
2020/12/18 09:51:56;;;;;;;19.20;5.90;;;6.70;99.90;;;;;;4712407;30;20060;-84
2020/12/18 09:54:22;;;;;;;15.43;5.28;;;6.70;99.90;;;;;;4718501;30;20051;-84
2020/12/18 09:56:52;;;;;;;25.45;5.57;;;6.80;99.90;;;;;;4719221;30;20140;-85
2020/12/18 09:59:37;;;;;;;19.38;4.95;;;6.90;99.90;;;;;;4724237;30;20108;-84
2020/12/18 10:02:03;;;;;;;11.73;4.82;;;7.00;99.90;;;;;;4732595;30;20135;-85
2020/12/18 10:04:29;;;;;;;16.35;5.55;;;7.00;99.90;;;;;;4704667;30;20055;-84
2020/12/18 10:07:14;;;;;;;18.40;5.95;;;7.10;99.90;;;;;;4734836;30;20079;-84
2020/12/18 10:09:40;;;;;;;9.52;4.60;;;7.20;99.90;;;;;;4749237;30;20141;-84
2020/12/18 10:12:06;;;;;;;17.85;5.57;;;7.30;99.90;;;;;;4703304;30;20201;-84
2020/12/18 10:14:32;;;;;;;16.23;5.30;;;7.30;99.90;;;;;;4733135;30;20051;-84
2020/12/18 10:17:17;;;;;;;17.42;5.53;;;7.40;99.90;;;;;;4735359;30;20090;-85
2020/12/18 10:19:43;;;;;;;12.90;4.50;;;7.40;99.90;;;;;;4733280;30;20052;-84
2020/12/18 10:22:29;;;;;;;11.73;4.82;;;7.40;99.90;;;;;;4723108;30;20182;-85
2020/12/18 10:24:55;;;;;;;10.05;4.72;;;7.50;99.90;;;;;;4733117;30;20127;-84
2020/12/18 10:27:42;;;;;;;15.27;4.18;;;7.60;99.90;;;;;;4735413;30;20061;-85
2020/12/18 10:30:08;;;;;;;17.20;5.22;;;7.50;99.90;;;;;;4745219;30;20082;-83
2020/12/18 10:32:35;;;;;;;10.35;5.18;;;7.60;99.90;;;;;;4730478;30;20056;-84
2020/12/18 10:35:01;;;;;;;13.73;5.38;;;7.60;99.90;;;;;;4732371;30;20547;-83
2020/12/18 10:37:27;;;;;;;21.00;5.28;;;7.60;99.90;;;;;;4747558;30;20048;-84
2020/12/18 10:39:54;;;;;;;16.73;5.47;;;7.60;99.90;;;;;;4718029;30;20055;-85
2020/12/18 10:42:20;;;;;;;11.05;4.47;;;7.60;99.90;;;;;;4747793;30;20056;-83
2020/12/18 10:45:06;;;;;;;14.35;4.95;;;7.70;99.90;;;;;;4734724;30;20060;-86
2020/12/18 10:47:32;;;;;;;19.50;5.13;;;7.70;99.90;;;;;;4748294;30;20508;-84
2020/12/18 10:50:18;;;;;;;10.50;5.00;;;7.60;99.90;;;;;;4709963;30;20086;-84
2020/12/18 10:53:05;;;;;;;15.23;6.00;;;7.70;99.90;;;;;;4706404;30;20059;-84
2020/12/18 10:55:31;;;;;;;15.27;5.28;;;7.70;99.90;;;;;;4728490;30;20102;-84
2020/12/18 10:58:16;;;;;;;10.38;4.60;;;7.70;99.90;;;;;;4712138;30;20064;-84
2020/12/18 11:01:02;;;;;;;12.23;6.13;;;7.70;99.90;;;;;;4735011;30;20125;-84
2020/12/18 11:03:28;;;;;;;14.80;5.45;;;7.80;99.90;;;;;;4747614;30;20039;-84
2020/12/18 11:05:54;;;;;;;11.50;5.55;;;7.80;99.90;;;;;;4701191;30;20518;-84
2020/12/18 11:08:19;;;;;;;14.00;6.10;;;7.80;99.90;;;;;;4699784;30;20052;-83
2020/12/18 11:11:12;;;;;;;13.25;5.20;;;7.80;99.90;;;;;;4692953;30;20094;-84
2020/12/18 11:13:58;;;;;;;13.57;5.57;;;7.80;99.90;;;;;;4716088;30;20121;-83
2020/12/18 11:16:44;;;;;;;11.68;5.60;;;7.90;99.90;;;;;;4718556;30;20063;-83
2020/12/18 11:19:10;;;;;;;12.45;5.70;;;7.90;99.90;;;;;;4729649;30;20052;-86
2020/12/18 11:21:55;;;;;;;15.90;5.68;;;7.90;99.90;;;;;;4692840;30;20060;-83
2020/12/18 11:24:21;;;;;;;18.45;5.55;;;7.90;99.90;;;;;;4716530;30;20107;-84
2020/12/18 11:26:52;;;;;;;10.90;5.00;;;8.00;99.90;;;;;;4726105;30;20418;-83
2020/12/18 11:29:17;;;;;;;;;;;8.00;99.90;;;;;;4728132;30;20547;-84
2020/12/18 11:31:43;;;;;;;17.55;5.53;;;8.00;99.90;;;;;;4733956;30;19994;-84
2020/12/18 11:34:10;;;;;;;14.13;5.55;;;8.00;99.90;;;;;;4716038;30;20040;-86
2020/12/18 11:36:36;;;;;;;11.57;5.45;;;8.10;99.90;;;;;;4715259;30;20070;-84
2020/12/18 11:39:04;;;;;;;14.55;4.93;;;8.20;99.90;;;;;;4731612;30;20056;-84
2020/12/18 11:41:30;;;;;;;13.60;5.30;;;8.20;99.90;;;;;;4733511;30;20087;-85
2020/12/18 11:43:56;;;;;;;17.48;6.22;;;8.20;99.90;;;;;;4715447;30;20135;-83
2020/12/18 11:46:22;;;;;;;10.90;4.90;;;8.30;99.90;;;;;;4716456;30;20051;-84
2020/12/18 11:48:47;;;;;;;12.40;5.82;;;8.30;99.90;;;;;;4699046;30;20055;-83
2020/12/18 11:51:33;;;;;;;16.73;5.32;;;8.40;99.90;;;;;;4717930;30;20390;-83
2020/12/18 11:53:59;;;;;;;13.40;4.97;;;8.40;99.80;;;;;;4726771;30;20500;-83
2020/12/18 11:56:49;;;;;;;15.50;5.80;;;8.40;99.90;;;;;;4706574;30;20075;-84
2020/12/18 11:59:15;;;;;;;13.95;5.13;;;8.50;99.50;;;;;;4729942;30;20108;-86
2020/12/18 12:02:00;;;;;;;12.35;5.80;;;8.50;99.70;;;;;;4728268;30;20068;-84
2020/12/18 12:04:26;;;;;;;8.75;5.32;;;8.60;99.70;;;;;;4715302;30;20045;-84
2020/12/18 12:07:12;;;;;;;11.32;4.88;;;8.60;99.90;;;;;;4717415;30;20482;-84
2020/12/18 12:09:38;;;;;;;14.32;4.65;;;8.60;99.40;;;;;;4706720;30;20135;-84
2020/12/18 12:12:04;;;;;;;11.18;5.10;;;8.70;99.50;;;;;;4702107;30;20049;-85
2020/12/18 12:14:29;;;;;;;8.75;5.05;;;8.60;99.30;;;;;;4720848;30;20178;-83
2020/12/18 12:17:15;;;;;;;14.07;5.00;;;8.60;99.10;;;;;;4735787;30;20521;-87
2020/12/18 12:19:41;;;;;;;14.13;4.88;;;8.70;98.90;;;;;;4718301;30;20056;-85
2020/12/18 12:22:07;;;;;;;12.63;4.75;;;8.70;98.90;;;;;;4723831;30;20459;-87
2020/12/18 12:24:33;;;;;;;12.02;5.05;;;8.70;98.40;;;;;;4716059;30;20045;-85
2020/12/18 12:26:59;;;;;;;11.02;4.88;;;8.70;98.50;;;;;;4733978;30;20375;-85
2020/12/18 12:29:24;;;;;;;9.50;4.45;;;8.70;98.50;;;;;;4704608;30;20064;-85
2020/12/18 12:31:50;;;;;;;13.15;4.55;;;8.70;98.60;;;;;;4715986;30;20123;-85
2020/12/18 12:34:17;;;;;;;13.85;5.65;;;8.70;98.20;;;;;;4729036;30;20048;-88
2020/12/18 12:36:42;;;;;;;8.05;4.38;;;8.70;98.90;;;;;;4734348;30;20055;-85
2020/12/18 12:39:08;;;;;;;11.25;5.53;;;8.70;98.70;;;;;;4726018;30;20148;-85
2020/12/18 12:41:34;;;;;;;9.10;4.63;;;8.80;98.70;;;;;;4701798;30;20064;-85
2020/12/18 12:44:00;;;;;;;14.38;4.85;;;8.70;98.40;;;;;;4703827;30;20070;-85
2020/12/18 12:46:26;;;;;;;13.25;4.78;;;8.80;98.40;;;;;;4734701;30;20472;-84
2020/12/18 12:49:11;;;;;;;9.60;5.10;;;8.80;98.30;;;;;;4723568;30;20561;-86
2020/12/18 12:51:37;;;;;;;14.65;5.25;;;8.80;98.10;;;;;;4702233;30;20063;-85
2020/12/18 12:54:03;;;;;;;11.90;4.82;;;8.80;98.80;;;;;;4730843;30;20866;-84
2020/12/18 12:56:29;;;;;;;9.80;4.50;;;8.80;98.50;;;;;;4733617;30;20110;-85
2020/12/18 12:58:55;;;;;;;11.32;5.10;;;8.80;98.00;;;;;;4704327;30;20447;-85
2020/12/18 13:01:21;;;;;;;14.85;5.07;;;8.80;98.30;;;;;;4733591;30;20048;-86
2020/12/18 13:03:46;;;;;;;10.25;4.93;;;8.80;98.70;;;;;;4717454;30;20724;-85
2020/12/18 13:06:23;;;;;;;9.45;4.60;;;8.80;99.20;;;;;;4731822;30;20124;-86
2020/12/18 13:09:09;;;;;;;13.43;4.72;;;8.80;98.30;;;;;;4732477;30;20139;-85